sensor_id;sensor_type;location;lat;lon;timestamp;pressure;altitude;pressure_sealevel;temperature;humidity
54806;BME280;62866;55.776;37.496;2023-05-14T00:00:13;100459.94;;;13.65;52.43
54806;BME280;62866;55.776;37.496;2023-05-14T00:02:39;100453.25;;;13.54;52.25
54806;BME280;62866;55.776;37.496;2023-05-14T00:05:05;100453.63;;;13.51;52.66
54806;BME280;62866;55.776;37.496;2023-05-14T00:07:30;100468.25;;;13.49;52.89
54806;BME280;62866;55.776;37.496;2023-05-14T00:09:57;100459.13;;;13.43;52.64
54806;BME280;62866;55.776;37.496;2023-05-14T00:12:23;100433.72;;;13.24;53.14
54806;BME280;62866;55.776;37.496;2023-05-14T00:14:48;100442.66;;;13.32;52.41
54806;BME280;62866;55.776;37.496;2023-05-14T00:17:14;100453.88;;;13.35;52.82
54806;BME280;62866;55.776;37.496;2023-05-14T00:19:39;100448.03;;;13.32;53.29
54806;BME280;62866;55.776;37.496;2023-05-14T00:22:09;100458.59;;;13.33;53.19
54806;BME280;62866;55.776;37.496;2023-05-14T00:24:35;100461.88;;;13.28;53.66
54806;BME280;62866;55.776;37.496;2023-05-14T00:27:02;100454.94;;;13.19;53.64
54806;BME280;62866;55.776;37.496;2023-05-14T00:29:27;100459.53;;;13.25;53.66
54806;BME280;62866;55.776;37.496;2023-05-14T00:31:53;100446.69;;;13.21;53.50
54806;BME280;62866;55.776;37.496;2023-05-14T00:34:18;100440.56;;;13.12;53.42
54806;BME280;62866;55.776;37.496;2023-05-14T00:36:44;100460.97;;;13.21;53.61
54806;BME280;62866;55.776;37.496;2023-05-14T00:39:09;100460.69;;;13.16;53.58
54806;BME280;62866;55.776;37.496;2023-05-14T00:41:35;100445.66;;;13.07;54.28
54806;BME280;62866;55.776;37.496;2023-05-14T00:44:01;100454.72;;;13.06;54.24
54806;BME280;62866;55.776;37.496;2023-05-14T00:46:26;100468.63;;;13.10;54.56
54806;BME280;62866;55.776;37.496;2023-05-14T00:48:52;100462.59;;;13.08;54.49
54806;BME280;62866;55.776;37.496;2023-05-14T00:51:18;100465.47;;;13.06;54.93
54806;BME280;62866;55.776;37.496;2023-05-14T00:53:45;100468.16;;;13.06;55.03
54806;BME280;62866;55.776;37.496;2023-05-14T00:56:12;100471.06;;;13.05;55.28
54806;BME280;62866;55.776;37.496;2023-05-14T00:58:37;100459.59;;;12.96;54.90
54806;BME280;62866;55.776;37.496;2023-05-14T01:01:03;100464.84;;;12.89;55.44
54806;BME280;62866;55.776;37.496;2023-05-14T01:03:30;100472.53;;;12.92;55.75
54806;BME280;62866;55.776;37.496;2023-05-14T01:11:37;100481.06;;;12.81;55.92
54806;BME280;62866;55.776;37.496;2023-05-14T01:14:41;100449.63;;;12.61;55.45
54806;BME280;62866;55.776;37.496;2023-05-14T01:17:10;100485.50;;;12.74;55.84
54806;BME280;62866;55.776;37.496;2023-05-14T01:19:43;100484.22;;;12.70;56.63
54806;BME280;62866;55.776;37.496;2023-05-14T01:22:10;100485.25;;;12.69;56.35
54806;BME280;62866;55.776;37.496;2023-05-14T01:24:36;100469.78;;;12.57;56.29
54806;BME280;62866;55.776;37.496;2023-05-14T01:29:33;100479.13;;;12.61;56.70
54806;BME280;62866;55.776;37.496;2023-05-14T01:32:05;100486.16;;;12.62;57.13
54806;BME280;62866;55.776;37.496;2023-05-14T01:34:34;100472.00;;;12.53;56.51
54806;BME280;62866;55.776;37.496;2023-05-14T01:37:00;100487.34;;;12.59;56.73
54806;BME280;62866;55.776;37.496;2023-05-14T01:39:26;100485.25;;;12.54;56.43
54806;BME280;62866;55.776;37.496;2023-05-14T01:41:53;100488.75;;;12.55;57.25
54806;BME280;62866;55.776;37.496;2023-05-14T01:44:20;100483.28;;;12.48;57.00
54806;BME280;62866;55.776;37.496;2023-05-14T01:46:46;100483.66;;;12.45;57.11
54806;BME280;62866;55.776;37.496;2023-05-14T01:49:11;100501.34;;;12.54;56.96
54806;BME280;62866;55.776;37.496;2023-05-14T01:51:37;100500.03;;;12.50;57.11
54806;BME280;62866;55.776;37.496;2023-05-14T01:54:02;100474.38;;;12.33;57.18
54806;BME280;62866;55.776;37.496;2023-05-14T01:56:28;100488.53;;;12.42;56.64
54806;BME280;62866;55.776;37.496;2023-05-14T01:58:53;100492.53;;;12.46;57.31
54806;BME280;62866;55.776;37.496;2023-05-14T02:01:21;100497.34;;;12.50;57.30
54806;BME280;62866;55.776;37.496;2023-05-14T02:03:47;100491.88;;;12.44;57.39
54806;BME280;62866;55.776;37.496;2023-05-14T02:06:12;100507.31;;;12.57;56.81
54806;BME280;62866;55.776;37.496;2023-05-14T02:08:38;100472.81;;;12.39;57.10
54806;BME280;62866;55.776;37.496;2023-05-14T02:11:03;100506.69;;;12.54;57.42
54806;BME280;62866;55.776;37.496;2023-05-14T02:13:29;100512.34;;;12.60;56.82
54806;BME280;62866;55.776;37.496;2023-05-14T02:15:54;100510.13;;;12.63;56.57
54806;BME280;62866;55.776;37.496;2023-05-14T02:18:20;100502.72;;;12.65;56.50
54806;BME280;62866;55.776;37.496;2023-05-14T02:20:46;100500.22;;;12.64;56.84
54806;BME280;62866;55.776;37.496;2023-05-14T02:23:11;100516.31;;;12.64;56.31
54806;BME280;62866;55.776;37.496;2023-05-14T02:25:37;100509.66;;;12.60;56.86
54806;BME280;62866;55.776;37.496;2023-05-14T02:28:02;100505.66;;;12.55;56.73
54806;BME280;62866;55.776;37.496;2023-05-14T02:30:28;100522.22;;;12.59;56.78
54806;BME280;62866;55.776;37.496;2023-05-14T02:32:55;100509.84;;;12.58;56.55
54806;BME280;62866;55.776;37.496;2023-05-14T02:35:21;100521.97;;;12.69;56.46
54806;BME280;62866;55.776;37.496;2023-05-14T02:37:47;100521.13;;;12.68;56.71
54806;BME280;62866;55.776;37.496;2023-05-14T02:40:13;100526.75;;;12.73;56.23
54806;BME280;62866;55.776;37.496;2023-05-14T02:42:38;100537.88;;;12.70;56.79
54806;BME280;62866;55.776;37.496;2023-05-14T02:45:05;100535.91;;;12.64;57.08
54806;BME280;62866;55.776;37.496;2023-05-14T02:47:30;100525.84;;;12.51;56.69
54806;BME280;62866;55.776;37.496;2023-05-14T02:49:56;100525.84;;;12.51;57.05
54806;BME280;62866;55.776;37.496;2023-05-14T02:52:21;100535.38;;;12.54;56.86
54806;BME280;62866;55.776;37.496;2023-05-14T02:54:47;100524.91;;;12.44;57.00
54806;BME280;62866;55.776;37.496;2023-05-14T02:57:13;100530.44;;;12.43;56.60
54806;BME280;62866;55.776;37.496;2023-05-14T02:59:38;100537.41;;;12.52;57.02
54806;BME280;62866;55.776;37.496;2023-05-14T03:02:04;100547.03;;;12.46;57.61
54806;BME280;62866;55.776;37.496;2023-05-14T03:04:29;100537.84;;;12.41;57.10
54806;BME280;62866;55.776;37.496;2023-05-14T03:06:55;100530.44;;;12.43;57.23
54806;BME280;62866;55.776;37.496;2023-05-14T03:09:21;100538.41;;;12.51;57.30
54806;BME280;62866;55.776;37.496;2023-05-14T03:11:46;100528.88;;;12.48;56.89
54806;BME280;62866;55.776;37.496;2023-05-14T03:14:12;100535.56;;;12.52;57.03
54806;BME280;62866;55.776;37.496;2023-05-14T03:16:37;100541.38;;;12.56;57.06
54806;BME280;62866;55.776;37.496;2023-05-14T03:19:06;100545.09;;;12.55;57.30
54806;BME280;62866;55.776;37.496;2023-05-14T03:21:32;100539.72;;;12.55;57.15
54806;BME280;62866;55.776;37.496;2023-05-14T03:23:57;100548.97;;;12.52;56.98
54806;BME280;62866;55.776;37.496;2023-05-14T03:26:23;100562.72;;;12.49;57.85
54806;BME280;62866;55.776;37.496;2023-05-14T03:28:49;100556.63;;;12.55;57.86
54806;BME280;62866;55.776;37.496;2023-05-14T03:31:15;100548.47;;;12.49;57.71
54806;BME280;62866;55.776;37.496;2023-05-14T03:33:40;100537.19;;;12.39;57.93
54806;BME280;62866;55.776;37.496;2023-05-14T03:36:06;100564.41;;;12.50;57.41
54806;BME280;62866;55.776;37.496;2023-05-14T03:38:32;100565.22;;;12.51;58.03
54806;BME280;62866;55.776;37.496;2023-05-14T03:40:57;100567.34;;;12.55;57.61
54806;BME280;62866;55.776;37.496;2023-05-14T03:43:23;100557.38;;;12.49;57.63
54806;BME280;62866;55.776;37.496;2023-05-14T03:45:48;100563.03;;;12.54;57.34
54806;BME280;62866;55.776;37.496;2023-05-14T03:48:17;100570.59;;;12.51;58.38
54806;BME280;62866;55.776;37.496;2023-05-14T03:50:43;100563.47;;;12.43;58.54
54806;BME280;62866;55.776;37.496;2023-05-14T03:53:09;100570.41;;;12.52;57.90
54806;BME280;62866;55.776;37.496;2023-05-14T03:55:34;100576.81;;;12.66;58.06
54806;BME280;62866;55.776;37.496;2023-05-14T03:58:01;100570.72;;;12.72;57.95
54806;BME280;62866;55.776;37.496;2023-05-14T04:00:27;100565.66;;;12.77;57.30
54806;BME280;62866;55.776;37.496;2023-05-14T04:02:53;100573.44;;;12.87;57.14
54806;BME280;62866;55.776;37.496;2023-05-14T04:05:18;100541.66;;;12.76;56.91
54806;BME280;62866;55.776;37.496;2023-05-14T04:07:44;100570.47;;;13.11;56.67
54806;BME280;62866;55.776;37.496;2023-05-14T04:10:11;100581.47;;;13.31;56.47
54806;BME280;62866;55.776;37.496;2023-05-14T04:12:37;100570.75;;;13.31;56.17
54806;BME280;62866;55.776;37.496;2023-05-14T04:15:02;100564.97;;;13.49;55.87
54806;BME280;62866;55.776;37.496;2023-05-14T04:17:28;100565.78;;;13.64;55.69
54806;BME280;62866;55.776;37.496;2023-05-14T04:19:54;100572.69;;;13.73;55.53
54806;BME280;62866;55.776;37.496;2023-05-14T04:22:19;100578.00;;;13.66;56.41
54806;BME280;62866;55.776;37.496;2023-05-14T04:24:45;100570.59;;;13.68;55.21
54806;BME280;62866;55.776;37.496;2023-05-14T04:27:10;100571.16;;;13.64;54.99
54806;BME280;62866;55.776;37.496;2023-05-14T04:29:36;100575.50;;;13.65;55.50
54806;BME280;62866;55.776;37.496;2023-05-14T04:32:01;100574.53;;;13.73;54.98
54806;BME280;62866;55.776;37.496;2023-05-14T04:34:27;100579.97;;;13.94;54.60
54806;BME280;62866;55.776;37.496;2023-05-14T04:36:52;100584.06;;;14.11;54.01
54806;BME280;62866;55.776;37.496;2023-05-14T04:39:18;100573.41;;;14.24;53.99
54806;BME280;62866;55.776;37.496;2023-05-14T04:41:43;100581.53;;;14.46;53.48
54806;BME280;62866;55.776;37.496;2023-05-14T04:44:11;100583.31;;;14.66;53.63
54806;BME280;62866;55.776;37.496;2023-05-14T04:46:36;100565.81;;;14.77;53.05
54806;BME280;62866;55.776;37.496;2023-05-14T04:49:02;100573.22;;;15.03;52.34
54806;BME280;62866;55.776;37.496;2023-05-14T04:51:28;100583.91;;;15.24;52.33
54806;BME280;62866;55.776;37.496;2023-05-14T04:53:53;100587.69;;;15.36;51.39
54806;BME280;62866;55.776;37.496;2023-05-14T04:56:21;100576.06;;;15.29;51.35
54806;BME280;62866;55.776;37.496;2023-05-14T04:58:47;100575.47;;;15.40;51.19
54806;BME280;62866;55.776;37.496;2023-05-14T05:01:12;100547.94;;;15.45;50.41
54806;BME280;62866;55.776;37.496;2023-05-14T05:03:39;100583.69;;;15.67;50.64
54806;BME280;62866;55.776;37.496;2023-05-14T05:06:04;100571.28;;;15.72;50.42
54806;BME280;62866;55.776;37.496;2023-05-14T05:08:30;100584.63;;;15.93;49.79
54806;BME280;62866;55.776;37.496;2023-05-14T05:10:55;100578.84;;;16.03;49.41
54806;BME280;62866;55.776;37.496;2023-05-14T05:13:21;100558.91;;;16.24;48.52
54806;BME280;62866;55.776;37.496;2023-05-14T05:15:46;100591.34;;;16.70;47.17
54806;BME280;62866;55.776;37.496;2023-05-14T05:18:12;100576.63;;;16.73;46.80
54806;BME280;62866;55.776;37.496;2023-05-14T05:20:38;100581.19;;;16.72;47.38
54806;BME280;62866;55.776;37.496;2023-05-14T05:23:03;100576.38;;;16.74;47.34
54806;BME280;62866;55.776;37.496;2023-05-14T05:25:29;100572.66;;;16.88;47.32
54806;BME280;62866;55.776;37.496;2023-05-14T05:27:54;100578.00;;;17.15;46.55
54806;BME280;62866;55.776;37.496;2023-05-14T05:30:20;100573.78;;;17.25;46.16
54806;BME280;62866;55.776;37.496;2023-05-14T05:32:45;100577.00;;;17.54;45.40
54806;BME280;62866;55.776;37.496;2023-05-14T05:35:11;100565.53;;;17.58;45.41
54806;BME280;62866;55.776;37.496;2023-05-14T05:37:37;100579.41;;;17.30;45.91
54806;BME280;62866;55.776;37.496;2023-05-14T05:40:03;100572.00;;;17.06;46.34
54806;BME280;62866;55.776;37.496;2023-05-14T05:42:29;100564.91;;;17.05;45.42
54806;BME280;62866;55.776;37.496;2023-05-14T05:44:55;100553.69;;;17.01;45.25
54806;BME280;62866;55.776;37.496;2023-05-14T05:47:20;100553.31;;;16.98;45.14
54806;BME280;62866;55.776;37.496;2023-05-14T05:49:46;100568.63;;;17.24;44.92
54806;BME280;62866;55.776;37.496;2023-05-14T05:52:11;100546.53;;;17.27;45.37
54806;BME280;62866;55.776;37.496;2023-05-14T05:54:37;100563.75;;;17.45;45.86
54806;BME280;62866;55.776;37.496;2023-05-14T05:57:04;100564.75;;;17.51;44.29
54806;BME280;62866;55.776;37.496;2023-05-14T05:59:29;100548.38;;;17.39;44.17
54806;BME280;62866;55.776;37.496;2023-05-14T06:01:55;100555.97;;;17.69;43.99
54806;BME280;62866;55.776;37.496;2023-05-14T06:04:21;100518.25;;;17.80;43.70
54806;BME280;62866;55.776;37.496;2023-05-14T06:06:46;100559.44;;;18.14;43.11
54806;BME280;62866;55.776;37.496;2023-05-14T06:09:12;100527.50;;;17.98;43.61
54806;BME280;62866;55.776;37.496;2023-05-14T06:11:37;100530.75;;;18.06;43.40
54806;BME280;62866;55.776;37.496;2023-05-14T06:14:03;100546.84;;;17.95;44.04
54806;BME280;62866;55.776;37.496;2023-05-14T06:16:28;100529.31;;;17.72;44.59
54806;BME280;62866;55.776;37.496;2023-05-14T06:18:54;100550.91;;;18.10;43.84
54806;BME280;62866;55.776;37.496;2023-05-14T06:21:20;100552.09;;;18.46;43.75
54806;BME280;62866;55.776;37.496;2023-05-14T06:23:46;100552.41;;;18.63;42.71
54806;BME280;62866;55.776;37.496;2023-05-14T06:26:11;100557.66;;;19.19;41.69
54806;BME280;62866;55.776;37.496;2023-05-14T06:28:37;100544.78;;;19.32;40.66
54806;BME280;62866;55.776;37.496;2023-05-14T06:31:03;100560.38;;;20.27;40.41
54806;BME280;62866;55.776;37.496;2023-05-14T06:33:28;100540.50;;;21.43;37.75
54806;BME280;62866;55.776;37.496;2023-05-14T06:36:03;100547.09;;;21.07;37.98
54806;BME280;62866;55.776;37.496;2023-05-14T06:38:29;100547.59;;;20.57;37.80
54806;BME280;62866;55.776;37.496;2023-05-14T06:40:55;100546.75;;;20.57;37.98
54806;BME280;62866;55.776;37.496;2023-05-14T06:43:21;100550.38;;;20.51;38.27
54806;BME280;62866;55.776;37.496;2023-05-14T06:45:50;100555.59;;;20.52;37.69
54806;BME280;62866;55.776;37.496;2023-05-14T06:48:17;100543.38;;;20.31;37.68
54806;BME280;62866;55.776;37.496;2023-05-14T06:50:48;100546.31;;;20.18;37.51
54806;BME280;62866;55.776;37.496;2023-05-14T06:53:14;100545.97;;;20.15;37.34
54806;BME280;62866;55.776;37.496;2023-05-14T06:55:40;100549.13;;;20.12;38.01
54806;BME280;62866;55.776;37.496;2023-05-14T06:58:06;100553.75;;;20.23;38.36
54806;BME280;62866;55.776;37.496;2023-05-14T07:00:32;100560.53;;;19.90;37.97
54806;BME280;62866;55.776;37.496;2023-05-14T07:02:58;100546.25;;;18.92;39.04
54806;BME280;62866;55.776;37.496;2023-05-14T07:05:23;100566.81;;;18.25;40.46
54806;BME280;62866;55.776;37.496;2023-05-14T07:07:49;100568.41;;;17.76;40.71
54806;BME280;62866;55.776;37.496;2023-05-14T07:10:15;100558.56;;;17.37;40.40
54806;BME280;62866;55.776;37.496;2023-05-14T07:12:41;100579.22;;;17.19;41.57
54806;BME280;62866;55.776;37.496;2023-05-14T07:15:07;100569.50;;;17.04;41.57
54806;BME280;62866;55.776;37.496;2023-05-14T07:17:32;100565.97;;;17.62;40.75
54806;BME280;62866;55.776;37.496;2023-05-14T07:19:58;100548.28;;;18.53;38.95
54806;BME280;62866;55.776;37.496;2023-05-14T07:22:23;100571.59;;;18.54;39.12
54806;BME280;62866;55.776;37.496;2023-05-14T07:24:49;100582.22;;;18.31;39.88
54806;BME280;62866;55.776;37.496;2023-05-14T07:27:15;100585.34;;;17.97;40.04
54806;BME280;62866;55.776;37.496;2023-05-14T07:29:41;100579.91;;;17.65;40.12
54806;BME280;62866;55.776;37.496;2023-05-14T07:32:07;100591.56;;;17.53;40.84
54806;BME280;62866;55.776;37.496;2023-05-14T07:34:33;100581.22;;;17.43;40.66
54806;BME280;62866;55.776;37.496;2023-05-14T07:36:59;100584.81;;;18.44;39.24
54806;BME280;62866;55.776;37.496;2023-05-14T07:39:25;100549.38;;;18.21;39.05
54806;BME280;62866;55.776;37.496;2023-05-14T07:41:50;100578.16;;;18.15;39.46
54806;BME280;62866;55.776;37.496;2023-05-14T07:44:16;100589.00;;;17.77;39.86
54806;BME280;62866;55.776;37.496;2023-05-14T07:46:42;100577.63;;;17.56;40.82
54806;BME280;62866;55.776;37.496;2023-05-14T07:49:07;100575.78;;;17.50;40.85
54806;BME280;62866;55.776;37.496;2023-05-14T07:51:33;100579.78;;;17.40;40.91
54806;BME280;62866;55.776;37.496;2023-05-14T07:53:58;100584.34;;;17.40;41.30
54806;BME280;62866;55.776;37.496;2023-05-14T07:56:24;100596.78;;;17.54;41.26
54806;BME280;62866;55.776;37.496;2023-05-14T07:58:50;100592.56;;;17.58;41.01
54806;BME280;62866;55.776;37.496;2023-05-14T08:01:16;100575.56;;;17.64;40.78
54806;BME280;62866;55.776;37.496;2023-05-14T08:03:42;100581.53;;;17.73;41.16
54806;BME280;62866;55.776;37.496;2023-05-14T08:06:07;100580.81;;;17.91;40.99
54806;BME280;62866;55.776;37.496;2023-05-14T08:08:33;100586.88;;;18.17;40.35
54806;BME280;62866;55.776;37.496;2023-05-14T08:10:59;100586.75;;;18.37;39.55
54806;BME280;62866;55.776;37.496;2023-05-14T08:13:24;100581.81;;;19.02;39.32
54806;BME280;62866;55.776;37.496;2023-05-14T08:15:50;100589.88;;;19.27;38.27
54806;BME280;62866;55.776;37.496;2023-05-14T08:18:16;100594.63;;;19.13;38.18
54806;BME280;62866;55.776;37.496;2023-05-14T08:20:42;100589.91;;;18.84;38.77
54806;BME280;62866;55.776;37.496;2023-05-14T08:23:07;100593.84;;;18.63;39.65
54806;BME280;62866;55.776;37.496;2023-05-14T08:25:33;100585.94;;;18.62;39.40
54806;BME280;62866;55.776;37.496;2023-05-14T08:27:59;100585.78;;;18.56;40.36
54806;BME280;62866;55.776;37.496;2023-05-14T08:30:26;100591.88;;;18.45;40.06
54806;BME280;62866;55.776;37.496;2023-05-14T08:32:52;100586.47;;;18.45;40.23
54806;BME280;62866;55.776;37.496;2023-05-14T08:35:17;100586.56;;;18.64;40.38
54806;BME280;62866;55.776;37.496;2023-05-14T08:37:44;100591.59;;;19.76;38.54
54806;BME280;62866;55.776;37.496;2023-05-14T08:40:10;100579.78;;;19.34;37.94
54806;BME280;62866;55.776;37.496;2023-05-14T08:42:37;100584.19;;;18.92;39.15
54806;BME280;62866;55.776;37.496;2023-05-14T08:45:18;100592.03;;;18.57;39.53
54806;BME280;62866;55.776;37.496;2023-05-14T08:47:47;100580.88;;;18.09;40.05
54806;BME280;62866;55.776;37.496;2023-05-14T08:50:16;100595.34;;;17.96;40.68
54806;BME280;62866;55.776;37.496;2023-05-14T08:52:42;100577.34;;;17.77;40.53
54806;BME280;62866;55.776;37.496;2023-05-14T08:55:10;100592.50;;;17.85;41.29
54806;BME280;62866;55.776;37.496;2023-05-14T08:57:36;100578.97;;;17.85;41.48
54806;BME280;62866;55.776;37.496;2023-05-14T09:00:03;100580.81;;;17.91;41.37
54806;BME280;62866;55.776;37.496;2023-05-14T09:02:39;100583.38;;;18.10;41.59
54806;BME280;62866;55.776;37.496;2023-05-14T09:05:05;100584.88;;;18.38;41.24
54806;BME280;62866;55.776;37.496;2023-05-14T09:07:34;100573.75;;;18.46;40.71
54806;BME280;62866;55.776;37.496;2023-05-14T09:10:00;100582.34;;;18.68;40.66
54806;BME280;62866;55.776;37.496;2023-05-14T09:12:26;100582.31;;;18.74;41.26
54806;BME280;62866;55.776;37.496;2023-05-14T09:14:52;100577.69;;;19.00;41.32
54806;BME280;62866;55.776;37.496;2023-05-14T09:17:18;100580.63;;;18.98;40.64
54806;BME280;62866;55.776;37.496;2023-05-14T09:19:45;100588.78;;;18.73;41.76
54806;BME280;62866;55.776;37.496;2023-05-14T09:22:15;100582.31;;;18.74;41.28
54806;BME280;62866;55.776;37.496;2023-05-14T09:24:41;100567.66;;;18.82;41.48
54806;BME280;62866;55.776;37.496;2023-05-14T09:27:08;100568.19;;;19.09;40.60
54806;BME280;62866;55.776;37.496;2023-05-14T09:29:35;100559.81;;;19.10;40.78
54806;BME280;62866;55.776;37.496;2023-05-14T09:32:04;100591.97;;;18.88;40.05
54806;BME280;62866;55.776;37.496;2023-05-14T09:34:33;100575.84;;;18.44;40.68
54806;BME280;62866;55.776;37.496;2023-05-14T09:37:00;100571.91;;;18.15;40.95
54806;BME280;62866;55.776;37.496;2023-05-14T09:39:27;100585.06;;;18.11;40.82
54806;BME280;62866;55.776;37.496;2023-05-14T09:41:53;100586.50;;;18.14;40.86
54806;BME280;62866;55.776;37.496;2023-05-14T09:44:19;100587.63;;;18.31;40.71
54806;BME280;62866;55.776;37.496;2023-05-14T09:46:45;100583.47;;;18.29;40.26
54806;BME280;62866;55.776;37.496;2023-05-14T09:49:11;100497.03;;;17.77;40.43
54806;BME280;62866;55.776;37.496;2023-05-14T09:51:37;100583.41;;;18.35;39.57
54806;BME280;62866;55.776;37.496;2023-05-14T09:54:04;100583.41;;;18.35;40.01
54806;BME280;62866;55.776;37.496;2023-05-14T09:56:31;100576.94;;;18.68;39.22
54806;BME280;62866;55.776;37.496;2023-05-14T09:58:57;100566.59;;;19.01;38.90
54806;BME280;62866;55.776;37.496;2023-05-14T10:01:23;100573.78;;;19.14;39.56
54806;BME280;62866;55.776;37.496;2023-05-14T10:03:50;100544.97;;;18.76;38.98
54806;BME280;62866;55.776;37.496;2023-05-14T10:06:18;100577.22;;;18.60;39.75
54806;BME280;62866;55.776;37.496;2023-05-14T10:08:47;100571.75;;;18.35;40.34
54806;BME280;62866;55.776;37.496;2023-05-14T10:11:17;100558.56;;;18.20;40.30
54806;BME280;62866;55.776;37.496;2023-05-14T10:14:01;100568.50;;;18.26;40.95
54806;BME280;62866;55.776;37.496;2023-05-14T10:16:32;100544.66;;;18.10;40.90
54806;BME280;62866;55.776;37.496;2023-05-14T10:19:09;100565.63;;;18.21;40.17
54806;BME280;62866;55.776;37.496;2023-05-14T10:21:36;100570.16;;;18.27;40.88
54806;BME280;62866;55.776;37.496;2023-05-14T10:24:03;100567.13;;;18.42;40.43
54806;BME280;62866;55.776;37.496;2023-05-14T10:26:34;100571.00;;;18.52;39.42
54806;BME280;62866;55.776;37.496;2023-05-14T10:29:04;100568.06;;;18.54;39.60
54806;BME280;62866;55.776;37.496;2023-05-14T10:31:46;100574.31;;;18.54;39.99
54806;BME280;62866;55.776;37.496;2023-05-14T10:34:35;100578.66;;;18.62;39.86
54806;BME280;62866;55.776;37.496;2023-05-14T10:37:17;100572.41;;;18.62;39.71
54806;BME280;62866;55.776;37.496;2023-05-14T10:40:03;100560.63;;;18.74;39.43
54806;BME280;62866;55.776;37.496;2023-05-14T10:42:35;100558.75;;;18.93;38.89
54806;BME280;62866;55.776;37.496;2023-05-14T10:45:06;100567.47;;;18.77;39.52
54806;BME280;62866;55.776;37.496;2023-05-14T10:47:34;100562.44;;;18.55;39.85
54806;BME280;62866;55.776;37.496;2023-05-14T10:50:02;100570.06;;;18.40;39.86
54806;BME280;62866;55.776;37.496;2023-05-14T10:52:29;100569.25;;;18.33;40.00
54806;BME280;62866;55.776;37.496;2023-05-14T10:55:02;100566.00;;;18.25;40.16
54806;BME280;62866;55.776;37.496;2023-05-14T10:57:29;100565.91;;;18.38;40.05
54806;BME280;62866;55.776;37.496;2023-05-14T10:59:58;100562.72;;;18.47;39.66
54806;BME280;62866;55.776;37.496;2023-05-14T11:02:32;100561.59;;;18.55;40.26
54806;BME280;62866;55.776;37.496;2023-05-14T11:05:01;100564.13;;;18.50;39.72
54806;BME280;62866;55.776;37.496;2023-05-14T11:07:32;100567.66;;;18.57;39.67
54806;BME280;62866;55.776;37.496;2023-05-14T11:12:29;100565.72;;;18.64;38.66
54806;BME280;62866;55.776;37.496;2023-05-14T11:15:00;100567.97;;;18.67;38.61
54806;BME280;62866;55.776;37.496;2023-05-14T11:17:27;100551.66;;;18.49;38.67
54806;BME280;62866;55.776;37.496;2023-05-14T11:19:54;100540.66;;;18.69;38.81
54806;BME280;62866;55.776;37.496;2023-05-14T11:22:21;100531.81;;;18.80;38.99
54806;BME280;62866;55.776;37.496;2023-05-14T11:24:47;100550.94;;;19.03;39.05
54806;BME280;62866;55.776;37.496;2023-05-14T11:27:13;100547.63;;;19.19;38.54
54806;BME280;62866;55.776;37.496;2023-05-14T11:29:42;100553.44;;;19.23;38.69
54806;BME280;62866;55.776;37.496;2023-05-14T11:32:08;100559.16;;;19.15;38.35
54806;BME280;62866;55.776;37.496;2023-05-14T11:34:33;100535.13;;;19.00;38.67
54806;BME280;62866;55.776;37.496;2023-05-14T11:37:03;100554.47;;;19.04;38.83
54806;BME280;62866;55.776;37.496;2023-05-14T11:39:32;100533.53;;;18.92;38.96
54806;BME280;62866;55.776;37.496;2023-05-14T11:41:59;100544.88;;;19.08;39.19
54806;BME280;62866;55.776;37.496;2023-05-14T11:44:26;100551.63;;;18.99;39.36
54806;BME280;62866;55.776;37.496;2023-05-14T11:46:56;100542.72;;;18.91;39.29
54806;BME280;62866;55.776;37.496;2023-05-14T11:49:22;100531.81;;;18.80;39.62
54806;BME280;62866;55.776;37.496;2023-05-14T11:51:49;100539.75;;;18.75;39.16
54806;BME280;62866;55.776;37.496;2023-05-14T11:54:15;100545.44;;;18.73;38.88
54806;BME280;62866;55.776;37.496;2023-05-14T11:56:40;100547.50;;;18.46;39.27
54806;BME280;62866;55.776;37.496;2023-05-14T11:59:06;100536.91;;;18.45;39.12
54806;BME280;62866;55.776;37.496;2023-05-14T12:01:38;100537.03;;;18.56;39.08
54806;BME280;62866;55.776;37.496;2023-05-14T12:04:04;100546.91;;;18.44;39.58
54806;BME280;62866;55.776;37.496;2023-05-14T12:06:31;100546.41;;;18.29;39.43
54806;BME280;62866;55.776;37.496;2023-05-14T12:08:56;100544.84;;;18.15;39.44
54806;BME280;62866;55.776;37.496;2023-05-14T12:11:22;100540.13;;;18.04;39.86
54806;BME280;62866;55.776;37.496;2023-05-14T12:13:48;100539.84;;;17.87;40.30
54806;BME280;62866;55.776;37.496;2023-05-14T12:16:13;100526.41;;;17.74;40.16
54806;BME280;62866;55.776;37.496;2023-05-14T12:18:39;100527.91;;;17.63;40.45
54806;BME280;62866;55.776;37.496;2023-05-14T12:21:05;100540.16;;;17.66;40.26
54806;BME280;62866;55.776;37.496;2023-05-14T12:23:32;100537.53;;;17.46;39.91
54806;BME280;62866;55.776;37.496;2023-05-14T12:26:03;100540.66;;;17.43;40.10
54806;BME280;62866;55.776;37.496;2023-05-14T12:28:30;100533.00;;;17.33;40.13
54806;BME280;62866;55.776;37.496;2023-05-14T12:30:57;100528.88;;;17.24;40.16
54806;BME280;62866;55.776;37.496;2023-05-14T12:33:22;100520.34;;;17.27;40.50
54806;BME280;62866;55.776;37.496;2023-05-14T12:35:54;100530.63;;;17.50;40.93
54806;BME280;62866;55.776;37.496;2023-05-14T12:38:27;100537.28;;;17.54;40.34
54806;BME280;62866;55.776;37.496;2023-05-14T12:40:52;100524.16;;;17.64;40.06
54806;BME280;62866;55.776;37.496;2023-05-14T12:43:18;100546.19;;;17.68;39.86
54806;BME280;62866;55.776;37.496;2023-05-14T12:45:44;100523.56;;;17.56;39.93
54806;BME280;62866;55.776;37.496;2023-05-14T12:48:10;100538.28;;;17.66;40.78